createdAt,value
2023-03-01T00:02:35.841Z,2.30
2023-03-01T00:05:21.150Z,2.30
2023-03-01T00:08:06.553Z,2.20
2023-03-01T00:11:05.902Z,2.20
2023-03-01T00:13:54.094Z,2.00
2023-03-01T00:16:41.917Z,1.90
2023-03-01T00:19:27.203Z,1.90
2023-03-01T00:22:12.769Z,1.60
2023-03-01T00:24:58.211Z,1.60
2023-03-01T00:27:43.539Z,1.60
2023-03-01T00:30:29.121Z,1.80
2023-03-01T00:33:14.728Z,1.70
2023-03-01T00:36:00.756Z,1.80
2023-03-01T00:38:46.747Z,1.90
2023-03-01T00:41:32.439Z,2.10
2023-03-01T00:44:18.287Z,2.10
2023-03-01T00:47:03.682Z,2.20
2023-03-01T00:49:49.539Z,2.30
2023-03-01T00:52:34.784Z,2.30
2023-03-01T00:55:20.099Z,2.20
2023-03-01T00:58:05.550Z,2.40
2023-03-01T01:00:51.059Z,2.40
2023-03-01T01:03:36.219Z,2.50
2023-03-01T01:06:24.409Z,2.60
2023-03-01T01:09:17.851Z,2.60
2023-03-01T01:12:03.649Z,2.50
2023-03-01T01:14:49.062Z,2.50
2023-03-01T01:17:34.459Z,2.50
2023-03-01T01:20:19.992Z,2.40
2023-03-01T01:23:06.626Z,2.30
2023-03-01T01:25:51.556Z,2.40
2023-03-01T01:28:37.142Z,2.40
2023-03-01T01:31:24.687Z,2.50
2023-03-01T01:34:15.401Z,2.50
2023-03-01T01:37:03.605Z,2.50
2023-03-01T01:39:48.844Z,2.50
2023-03-01T01:42:34.261Z,2.40
2023-03-01T01:45:36.928Z,2.30
2023-03-01T01:48:25.122Z,2.30
2023-03-01T01:51:15.584Z,2.20
2023-03-01T01:54:02.290Z,2.10
2023-03-01T01:56:53.744Z,2.10
2023-03-01T01:59:39.972Z,2.00
2023-03-01T02:02:25.812Z,2.00
2023-03-01T02:05:20.532Z,2.00
2023-03-01T02:08:06.661Z,2.00
2023-03-01T02:10:53.690Z,2.00
2023-03-01T02:13:39.188Z,2.00
2023-03-01T02:16:24.394Z,2.00
2023-03-01T02:19:26.925Z,1.90
2023-03-01T02:22:29.739Z,1.80
2023-03-01T02:25:20.820Z,1.80
2023-03-01T02:28:11.981Z,1.80
2023-03-01T02:31:15.854Z,1.90
2023-03-01T02:34:05.390Z,1.90
2023-03-01T02:36:58.197Z,1.90
2023-03-01T02:39:45.524Z,1.90
2023-03-01T02:42:36.656Z,1.80
2023-03-01T02:45:22.311Z,1.70
2023-03-01T02:48:07.411Z,1.90
2023-03-01T02:51:16.361Z,1.80
2023-03-01T02:54:42.636Z,1.80
2023-03-01T02:57:30.077Z,1.80
2023-03-01T03:00:34.157Z,1.90
2023-03-01T03:03:22.872Z,2.00
2023-03-01T03:06:08.791Z,2.00
2023-03-01T03:08:54.140Z,2.00
2023-03-01T03:11:43.606Z,2.00
2023-03-01T03:14:29.002Z,1.80
2023-03-01T03:17:14.237Z,1.70
2023-03-01T03:19:59.687Z,1.40
2023-03-01T03:22:45.502Z,1.40
2023-03-01T03:25:31.286Z,1.30
2023-03-01T03:28:16.896Z,1.30
2023-03-01T03:31:04.646Z,1.20
2023-03-01T03:33:50.026Z,1.10
2023-03-01T03:36:35.260Z,1.20
2023-03-01T03:39:21.257Z,1.20
2023-03-01T03:42:06.816Z,1.20
2023-03-01T03:44:52.081Z,1.10
2023-03-01T03:47:37.341Z,1.10
2023-03-01T03:50:22.513Z,1.10
2023-03-01T03:53:10.950Z,1.10
2023-03-01T03:55:56.228Z,1.20
2023-03-01T03:58:42.013Z,1.30
2023-03-01T04:01:27.242Z,1.30
2023-03-01T04:04:12.510Z,1.30
2023-03-01T04:06:57.892Z,1.30
2023-03-01T04:09:44.323Z,1.20
2023-03-01T04:12:29.396Z,1.30
2023-03-01T04:15:14.800Z,1.30
2023-03-01T04:18:00.586Z,1.30
2023-03-01T04:20:46.601Z,1.30
2023-03-01T04:23:31.769Z,1.30
2023-03-01T04:29:03.012Z,1.10
2023-03-01T04:48:34.243Z,0.90
2023-03-01T04:51:19.645Z,1.70
2023-03-01T04:54:06.244Z,1.70
2023-03-01T04:56:51.441Z,1.70
2023-03-01T04:59:37.096Z,1.70
2023-03-01T05:02:22.260Z,1.70
2023-03-01T05:05:07.836Z,1.70
2023-03-01T05:08:01.450Z,1.70
2023-03-01T05:10:50.421Z,1.70
2023-03-01T05:13:37.128Z,1.70
2023-03-01T05:16:22.473Z,1.70
2023-03-01T05:19:16.082Z,1.70
2023-03-01T05:22:07.218Z,1.80
2023-03-01T05:24:52.228Z,1.80
2023-03-01T05:27:37.692Z,1.70
2023-03-01T05:30:23.535Z,1.70
2023-03-01T05:33:15.819Z,1.60
2023-03-01T05:36:01.941Z,1.50
2023-03-01T05:38:47.118Z,1.40
2023-03-01T05:41:32.374Z,1.50
2023-03-01T05:44:17.729Z,1.40
2023-03-01T05:47:03.075Z,1.40
2023-03-01T05:49:50.489Z,1.50
2023-03-01T05:52:35.882Z,1.40
2023-03-01T05:55:22.225Z,1.40
2023-03-01T07:18:31.470Z,1.40
2023-03-01T07:21:17.463Z,2.60
2023-03-01T07:24:02.514Z,2.40
2023-03-01T07:26:52.190Z,2.10
2023-03-01T07:29:37.641Z,2.10
2023-03-01T07:32:22.942Z,2.10
2023-03-01T07:35:08.416Z,2.10
2023-03-01T07:37:54.052Z,2.20
2023-03-01T07:40:39.321Z,2.20
2023-03-01T07:43:24.696Z,2.20
2023-03-01T07:46:10.812Z,2.10
2023-03-01T07:48:56.230Z,2.20
2023-03-01T07:51:42.941Z,2.20
2023-03-01T07:54:28.158Z,2.20
2023-03-01T07:57:13.427Z,2.30
2023-03-01T07:59:58.842Z,2.20
2023-03-01T08:02:44.216Z,2.10
2023-03-01T08:05:29.861Z,2.20
2023-03-01T08:08:15.308Z,2.30
2023-03-01T08:11:02.244Z,2.30
2023-03-01T08:13:51.349Z,2.60
2023-03-01T08:16:37.996Z,2.70
2023-03-01T08:19:23.569Z,2.80
2023-03-01T08:22:09.062Z,2.90
2023-03-01T08:24:56.721Z,2.80
2023-03-01T08:27:41.865Z,2.80
2023-03-01T08:30:27.279Z,2.80
2023-03-01T08:33:12.707Z,2.80
2023-03-01T08:36:07.859Z,2.90
2023-03-01T08:38:54.058Z,3.00
2023-03-01T08:41:39.473Z,3.10
2023-03-01T08:44:25.526Z,3.20
2023-03-01T08:47:10.898Z,3.30
2023-03-01T08:49:56.542Z,3.50
2023-03-01T08:52:41.952Z,3.50
2023-03-01T08:55:27.328Z,3.60
2023-03-01T08:58:13.093Z,3.80
2023-03-01T09:00:58.268Z,3.90
2023-03-01T09:03:44.848Z,4.00
2023-03-01T09:06:33.931Z,4.00
2023-03-01T09:09:19.347Z,4.00
2023-03-01T09:12:05.418Z,4.20
2023-03-01T09:14:50.721Z,4.20
2023-03-01T09:17:36.014Z,4.30
2023-03-01T09:20:21.479Z,4.40
2023-03-01T09:23:06.815Z,4.50
2023-03-01T09:25:53.264Z,4.70
2023-03-01T09:28:39.568Z,4.90
2023-03-01T09:31:25.717Z,5.20
2023-03-01T09:34:11.116Z,5.30
2023-03-01T09:36:58.741Z,5.00
2023-03-01T09:39:43.810Z,5.00
2023-03-01T09:42:32.127Z,5.10
2023-03-01T09:45:26.528Z,5.40
2023-03-01T09:48:24.430Z,5.80
2023-03-01T09:51:18.134Z,6.10
2023-03-01T09:54:09.353Z,6.10
2023-03-01T09:57:18.068Z,6.20
2023-03-01T10:00:20.578Z,6.30
2023-03-01T10:03:16.800Z,6.70
2023-03-01T10:06:34.468Z,6.80
2023-03-01T10:09:22.115Z,7.00
2023-03-01T10:12:16.406Z,6.90
2023-03-01T10:15:05.637Z,7.00
2023-03-01T10:18:04.016Z,7.00
2023-03-01T10:21:04.347Z,7.10
2023-03-01T10:23:53.665Z,7.60
2023-03-01T10:26:45.209Z,7.80
2023-03-01T10:29:47.144Z,8.00
2023-03-01T10:32:32.841Z,8.10
2023-03-01T10:35:22.061Z,8.40
2023-03-01T10:38:08.572Z,8.40
2023-03-01T10:41:12.252Z,8.60
2023-03-01T10:44:00.518Z,8.80
2023-03-01T10:46:45.614Z,8.90
2023-03-01T10:49:31.064Z,8.90
2023-03-01T10:52:21.680Z,9.00
2023-03-01T10:55:10.123Z,9.10
2023-03-01T10:58:21.764Z,9.10
2023-03-01T11:01:24.563Z,9.20
2023-03-01T11:04:10.054Z,9.20
2023-03-01T11:07:02.766Z,9.30
2023-03-01T11:09:47.767Z,9.50
2023-03-01T11:12:34.265Z,9.70
2023-03-01T11:15:26.445Z,9.80
2023-03-01T11:18:31.042Z,10.00
2023-03-01T11:21:22.421Z,10.30
2023-03-01T11:24:12.922Z,10.40
2023-03-01T11:27:03.628Z,10.70
2023-03-01T11:30:13.873Z,10.70
2023-03-01T11:33:25.036Z,10.60
2023-03-01T11:36:13.534Z,10.70
2023-03-01T11:39:11.933Z,10.90
2023-03-01T11:42:29.005Z,11.30
2023-03-01T11:45:14.394Z,11.30
2023-03-01T11:48:08.284Z,11.50
2023-03-01T11:50:56.227Z,11.40
2023-03-01T11:54:02.079Z,11.60
2023-03-01T11:57:02.151Z,11.50
2023-03-01T12:00:11.445Z,11.50
2023-03-01T12:03:26.141Z,11.30
2023-03-01T12:06:50.180Z,11.20
2023-03-01T12:09:51.428Z,11.00
2023-03-01T12:12:56.456Z,11.10
2023-03-01T12:16:13.599Z,11.20
2023-03-01T12:19:17.169Z,11.10
2023-03-01T12:22:23.891Z,10.70
2023-03-01T12:25:19.422Z,10.60
2023-03-01T12:28:33.663Z,10.70
2023-03-01T12:31:43.700Z,10.60
2023-03-01T12:34:51.517Z,10.50
2023-03-01T12:38:11.159Z,10.80
2023-03-01T12:41:35.191Z,11.30
2023-03-01T12:44:44.873Z,11.40
2023-03-01T12:47:54.836Z,11.70
2023-03-01T12:50:49.739Z,11.80
2023-03-01T12:53:43.199Z,11.80
2023-03-01T12:56:33.192Z,11.70
2023-03-01T12:59:43.809Z,11.60
2023-03-01T13:02:50.971Z,11.50
2023-03-01T13:05:53.126Z,11.50
2023-03-01T13:09:01.512Z,11.30
2023-03-01T13:11:46.697Z,11.30
2023-03-01T13:14:32.070Z,11.20
2023-03-01T13:17:33.185Z,11.30
2023-03-01T13:20:21.663Z,11.30
2023-03-01T13:23:22.403Z,11.30
2023-03-01T13:26:18.858Z,11.20
2023-03-01T13:29:03.945Z,11.30
2023-03-01T13:31:49.419Z,11.70
2023-03-01T13:34:45.758Z,11.80
2023-03-01T13:37:36.918Z,12.00
2023-03-01T13:40:23.567Z,12.10
2023-03-01T13:43:30.164Z,12.10
2023-03-01T13:46:21.012Z,12.30
2023-03-01T13:49:06.380Z,12.60
2023-03-01T13:51:52.224Z,12.40
2023-03-01T13:54:39.867Z,12.40
2023-03-01T13:57:37.463Z,12.50
2023-03-01T14:00:38.139Z,12.80
2023-03-01T14:03:23.734Z,13.00
2023-03-01T14:06:17.358Z,12.90
2023-03-01T14:09:06.616Z,13.10
2023-03-01T14:12:10.455Z,13.00
2023-03-01T14:15:05.404Z,12.90
2023-03-01T14:18:01.100Z,12.70
2023-03-01T14:20:52.061Z,12.70
2023-03-01T14:23:42.943Z,12.80
2023-03-01T14:26:28.371Z,12.90
2023-03-01T14:29:36.771Z,12.80
2023-03-01T14:32:26.033Z,12.80
2023-03-01T14:35:26.069Z,12.90
2023-03-01T14:38:22.544Z,12.70
2023-03-01T14:41:12.292Z,12.60
2023-03-01T14:44:04.548Z,12.60
2023-03-01T14:46:54.844Z,12.60
2023-03-01T14:49:40.381Z,12.60
2023-03-01T14:52:39.370Z,12.70
2023-03-01T14:55:35.722Z,12.40
2023-03-01T14:58:24.696Z,12.10
2023-03-01T15:01:17.602Z,11.60
2023-03-01T15:04:03.756Z,11.80
2023-03-01T15:06:52.699Z,11.90
2023-03-01T15:09:38.375Z,12.30
2023-03-01T15:12:29.504Z,12.30
2023-03-01T15:15:30.864Z,12.40
2023-03-01T15:18:23.124Z,12.30
2023-03-01T15:21:10.708Z,11.90
2023-03-01T15:24:07.147Z,12.00
2023-03-01T15:26:55.045Z,11.90
2023-03-01T15:29:41.643Z,12.10
2023-03-01T15:32:31.495Z,12.30
2023-03-01T15:35:49.179Z,12.70
2023-03-01T15:38:41.342Z,12.60
2023-03-01T15:41:49.642Z,12.60
2023-03-01T15:44:44.024Z,12.60
2023-03-01T15:47:33.070Z,12.70
2023-03-01T15:50:36.812Z,12.40
2023-03-01T15:53:22.231Z,12.20
2023-03-01T15:56:08.413Z,12.40
2023-03-01T15:58:53.559Z,12.30
2023-03-01T16:01:39.047Z,12.40
2023-03-01T16:04:24.528Z,12.20
2023-03-01T16:07:10.906Z,12.10
2023-03-01T16:09:56.185Z,11.80
2023-03-01T16:12:41.625Z,11.60
2023-03-01T16:15:32.655Z,11.20
2023-03-01T16:18:18.538Z,11.00
2023-03-01T16:21:03.970Z,10.80
2023-03-01T16:23:50.300Z,10.80
2023-03-01T16:26:37.217Z,10.60
2023-03-01T16:29:22.843Z,10.30
2023-03-01T16:32:08.427Z,10.20
2023-03-01T16:34:53.808Z,10.00
2023-03-01T16:37:40.316Z,9.90
2023-03-01T16:40:28.223Z,10.00
2023-03-01T16:43:13.746Z,9.90
2023-03-01T16:45:59.804Z,9.60
2023-03-01T16:48:45.628Z,9.50
2023-03-01T16:51:31.963Z,9.50
2023-03-01T16:54:17.622Z,9.40
2023-03-01T16:57:05.437Z,9.40
2023-03-01T16:59:54.572Z,9.20
2023-03-01T17:02:42.003Z,9.00
2023-03-01T17:05:27.481Z,9.00
2023-03-01T17:08:12.866Z,8.70
2023-03-01T17:11:04.911Z,8.60
2023-03-01T17:13:50.445Z,8.30
2023-03-01T17:16:36.826Z,8.30
2023-03-01T17:19:22.676Z,8.40
2023-03-01T17:22:08.464Z,8.30
2023-03-01T17:24:53.584Z,8.30
2023-03-01T17:27:39.752Z,8.30
2023-03-01T17:30:25.081Z,8.20
2023-03-01T17:33:10.818Z,7.90
2023-03-01T17:35:57.367Z,7.90
2023-03-01T17:38:42.452Z,7.90
2023-03-01T17:41:28.737Z,7.80
2023-03-01T17:44:14.079Z,7.80
2023-03-01T17:46:59.639Z,7.80
2023-03-01T17:49:45.037Z,7.60
2023-03-01T17:52:31.253Z,7.60
2023-03-01T17:55:16.588Z,7.60
2023-03-01T17:58:02.018Z,7.60
2023-03-01T18:00:47.441Z,7.50
2023-03-01T18:03:32.870Z,7.40
2023-03-01T18:06:24.254Z,7.30
2023-03-01T18:09:09.795Z,7.20
2023-03-01T18:11:55.375Z,7.10
2023-03-01T18:14:40.715Z,7.20
2023-03-01T18:17:26.730Z,7.10
2023-03-01T18:20:13.281Z,7.20
2023-03-01T18:22:58.326Z,7.10
2023-03-01T18:25:43.767Z,7.10
2023-03-01T18:28:30.700Z,7.00
2023-03-01T18:31:21.692Z,7.00
2023-03-01T18:34:07.019Z,6.80
2023-03-01T18:37:09.801Z,6.80
2023-03-01T18:39:55.407Z,6.70
2023-03-01T18:42:40.607Z,6.70
2023-03-01T18:45:26.003Z,6.70
2023-03-01T18:48:14.081Z,6.70
2023-03-01T18:51:08.333Z,6.60
2023-03-01T18:53:53.759Z,6.70
2023-03-01T18:56:39.448Z,6.70
2023-03-01T18:59:25.214Z,6.70
2023-03-01T19:02:12.717Z,6.60
2023-03-01T19:04:58.148Z,6.50
2023-03-01T19:07:43.453Z,6.50
2023-03-01T19:10:29.109Z,6.60
2023-03-01T19:13:14.179Z,6.50
2023-03-01T19:16:14.620Z,6.60
2023-03-01T19:19:01.605Z,6.60
2023-03-01T19:21:55.952Z,6.60
2023-03-01T19:24:48.669Z,6.70
2023-03-01T19:27:34.357Z,6.60
2023-03-01T19:30:19.712Z,6.60
2023-03-01T19:33:14.771Z,6.70
2023-03-01T19:36:01.514Z,6.60
2023-03-01T19:38:51.206Z,6.50
2023-03-01T19:41:36.936Z,6.50
2023-03-01T19:44:24.929Z,6.40
2023-03-01T19:47:10.402Z,6.30
2023-03-01T19:49:55.717Z,6.20
2023-03-01T19:52:41.206Z,6.20
2023-03-01T19:55:26.688Z,6.30
2023-03-01T19:58:12.827Z,6.20
2023-03-01T20:00:58.910Z,6.00
2023-03-01T20:03:44.809Z,6.00
2023-03-01T20:06:30.919Z,6.10
2023-03-01T20:09:21.914Z,6.00
2023-03-01T20:12:07.998Z,5.90
2023-03-01T20:14:55.348Z,5.80
2023-03-01T20:17:40.555Z,5.80
2023-03-01T20:20:25.957Z,5.70
2023-03-01T20:23:11.350Z,5.70
2023-03-01T20:26:08.559Z,5.60
2023-03-01T20:28:56.988Z,5.70
2023-03-01T20:31:42.876Z,5.70
2023-03-01T20:34:28.307Z,5.70
2023-03-01T20:37:13.477Z,5.60
2023-03-01T20:39:58.868Z,5.60
2023-03-01T20:42:44.256Z,5.60
2023-03-01T20:45:29.842Z,5.50
2023-03-01T20:48:15.343Z,5.50
2023-03-01T20:51:05.223Z,5.50
2023-03-01T20:53:51.048Z,5.40
2023-03-01T20:56:36.224Z,5.40
2023-03-01T20:59:21.948Z,5.40
2023-03-01T21:02:07.477Z,5.40
2023-03-01T21:04:52.507Z,5.30
2023-03-01T21:07:38.275Z,5.30
2023-03-01T21:10:23.339Z,5.30
2023-03-01T21:13:10.415Z,5.30
2023-03-01T21:15:58.790Z,5.30
2023-03-01T21:18:44.056Z,5.30
2023-03-01T21:21:29.294Z,5.20
2023-03-01T21:24:14.642Z,5.10
2023-03-01T21:27:02.263Z,5.20
2023-03-01T21:29:47.708Z,5.10
2023-03-01T21:32:33.342Z,5.10
2023-03-01T21:35:18.658Z,5.00
2023-03-01T21:38:03.953Z,5.10
2023-03-01T21:40:49.286Z,5.10
2023-03-01T21:43:35.883Z,5.20
2023-03-01T21:46:24.810Z,5.10
2023-03-01T21:49:10.644Z,5.10
2023-03-01T21:51:56.060Z,5.20
2023-03-01T21:54:41.280Z,5.10
2023-03-01T21:57:26.906Z,5.10
2023-03-01T22:00:13.132Z,5.00
2023-03-01T22:02:58.426Z,4.90
2023-03-01T22:05:43.754Z,4.80
2023-03-01T22:08:29.516Z,4.80
2023-03-01T22:11:17.866Z,4.70
2023-03-01T22:14:04.719Z,4.70
2023-03-01T22:16:51.470Z,4.70
2023-03-01T22:19:37.060Z,4.70
2023-03-01T22:22:22.532Z,4.70
2023-03-01T22:25:08.730Z,4.60
2023-03-01T22:27:53.800Z,4.60
2023-03-01T22:30:39.151Z,4.70
2023-03-01T22:33:24.868Z,4.60
2023-03-01T22:36:10.053Z,4.60
2023-03-01T22:39:00.360Z,4.70
2023-03-01T22:41:48.204Z,4.70
2023-03-01T22:44:33.376Z,4.60
2023-03-01T22:47:18.762Z,4.60
2023-03-01T22:50:07.197Z,4.70
2023-03-01T22:52:52.351Z,4.50
2023-03-01T22:55:37.818Z,4.50
2023-03-01T22:58:23.308Z,4.60
2023-03-01T23:01:17.524Z,4.50
2023-03-01T23:04:02.953Z,4.50
2023-03-01T23:06:51.760Z,4.50
2023-03-01T23:09:37.434Z,4.50
2023-03-01T23:12:22.937Z,4.50
2023-03-01T23:15:09.566Z,4.50
2023-03-01T23:17:54.697Z,4.40
2023-03-01T23:20:40.101Z,4.30
2023-03-01T23:23:25.829Z,4.20
2023-03-01T23:26:11.069Z,4.10
2023-03-01T23:28:57.309Z,4.20
2023-03-01T23:31:42.413Z,4.30
2023-03-01T23:34:28.225Z,4.30
2023-03-01T23:37:13.238Z,4.20
2023-03-01T23:39:58.662Z,4.20
2023-03-01T23:42:43.715Z,4.20
2023-03-01T23:45:29.144Z,4.20
2023-03-01T23:48:14.463Z,4.20
2023-03-01T23:51:04.584Z,4.20
2023-03-01T23:53:54.587Z,4.20
2023-03-01T23:56:42.668Z,4.00
2023-03-01T23:59:28.049Z,4.10
